createdAt,value
2022-09-11T00:02:08.241Z,11.73
2022-09-11T00:07:11.258Z,11.70
2022-09-11T00:12:13.968Z,11.70
2022-09-11T00:17:18.691Z,11.70
2022-09-11T00:22:21.409Z,11.71
2022-09-11T00:27:24.387Z,11.71
2022-09-11T00:32:27.139Z,11.71
2022-09-11T00:37:29.845Z,11.71
2022-09-11T00:42:32.574Z,11.73
2022-09-11T00:47:36.268Z,11.75
2022-09-11T00:52:45.297Z,11.70
2022-09-11T00:57:57.768Z,11.68
2022-09-11T01:03:00.837Z,11.71
2022-09-11T01:08:04.292Z,11.73
2022-09-11T01:13:17.808Z,11.66
2022-09-11T01:18:36.988Z,11.57
2022-09-11T01:24:00.868Z,11.49
2022-09-11T01:29:16.255Z,11.44
2022-09-11T01:34:26.434Z,11.46
2022-09-11T01:39:35.306Z,11.45
2022-09-11T01:44:47.513Z,11.36
2022-09-11T01:50:03.883Z,11.26
2022-09-11T01:55:15.716Z,11.23
2022-09-11T02:00:19.040Z,11.18
2022-09-11T02:05:41.198Z,11.18
2022-09-11T02:10:52.164Z,11.19
2022-09-11T02:16:02.181Z,11.16
2022-09-11T02:21:05.228Z,11.07
2022-09-11T02:26:11.557Z,11.04
2022-09-11T02:31:14.396Z,11.04
2022-09-11T02:36:32.166Z,11.06
2022-09-11T02:41:51.949Z,11.09
2022-09-11T02:47:11.837Z,11.12
2022-09-11T02:52:32.974Z,11.11
2022-09-11T02:57:43.388Z,11.10
2022-09-11T03:02:47.898Z,11.08
2022-09-11T03:07:50.624Z,11.07
2022-09-11T03:12:55.032Z,11.05
2022-09-11T03:17:58.053Z,11.05
2022-09-11T03:23:01.065Z,11.05
2022-09-11T03:28:04.763Z,11.05
2022-09-11T03:33:08.549Z,11.04
2022-09-11T03:38:12.059Z,11.02
2022-09-11T03:43:16.897Z,11.06
2022-09-11T03:48:19.660Z,11.11
2022-09-11T03:53:22.569Z,11.15
2022-09-11T03:58:25.373Z,11.21
2022-09-11T04:03:28.124Z,11.26
2022-09-11T04:08:33.902Z,11.27
2022-09-11T04:13:38.879Z,11.26
2022-09-11T04:18:43.761Z,11.28
2022-09-11T04:23:53.661Z,11.30
2022-09-11T04:29:00.272Z,11.31
2022-09-11T04:34:03.107Z,11.33
2022-09-11T04:39:05.932Z,11.38
2022-09-11T04:44:09.022Z,11.46
2022-09-11T04:49:11.908Z,11.50
2022-09-11T04:54:18.469Z,11.52
2022-09-11T04:59:23.184Z,11.48
2022-09-11T05:04:26.543Z,11.51
2022-09-11T05:09:29.559Z,11.51
2022-09-11T05:14:32.880Z,11.49
2022-09-11T05:19:35.616Z,11.50
2022-09-11T05:24:40.089Z,11.55
2022-09-11T05:29:43.130Z,11.59
2022-09-11T05:34:45.926Z,11.66
2022-09-11T05:39:48.637Z,11.78
2022-09-11T05:44:52.345Z,11.96
2022-09-11T05:49:56.602Z,12.15
2022-09-11T05:54:59.718Z,12.26
2022-09-11T06:00:03.834Z,12.52
2022-09-11T06:05:07.159Z,12.73
2022-09-11T06:10:10.103Z,12.71
2022-09-11T06:15:30.107Z,12.66
2022-09-11T06:20:35.651Z,12.59
2022-09-11T06:25:39.565Z,12.61
2022-09-11T06:30:42.305Z,12.72
2022-09-11T06:35:46.195Z,12.99
2022-09-11T06:40:49.007Z,13.24
2022-09-11T06:45:52.065Z,13.40
2022-09-11T06:50:55.314Z,13.39
2022-09-11T06:56:02.760Z,13.32
2022-09-11T07:01:07.098Z,13.41
2022-09-11T07:06:09.904Z,13.50
2022-09-11T07:11:13.070Z,13.64
2022-09-11T07:16:16.462Z,13.76
2022-09-11T07:21:23.004Z,13.87
2022-09-11T07:26:27.980Z,14.17
2022-09-11T07:31:35.630Z,14.46
2022-09-11T07:36:42.099Z,14.68
2022-09-11T07:41:44.690Z,14.89
2022-09-11T07:46:47.488Z,15.07
2022-09-11T07:51:50.429Z,15.25
2022-09-11T07:56:55.552Z,15.52
2022-09-11T08:01:59.596Z,15.79
2022-09-11T08:07:03.398Z,16.12
2022-09-11T08:12:07.865Z,16.45
2022-09-11T08:17:10.628Z,16.60
2022-09-11T08:22:13.486Z,16.50
2022-09-11T08:27:16.350Z,16.42
2022-09-11T08:32:20.066Z,16.33
2022-09-11T08:37:22.806Z,16.31
2022-09-11T08:42:27.644Z,16.51
2022-09-11T08:47:35.795Z,16.78
2022-09-11T08:52:39.719Z,17.05
2022-09-11T08:57:42.929Z,17.33
2022-09-11T09:03:24.539Z,17.88
2022-09-11T09:09:08.546Z,18.47
2022-09-11T09:14:38.298Z,18.83
2022-09-11T09:20:01.752Z,18.50
2022-09-11T09:25:12.049Z,18.04
2022-09-11T09:30:24.716Z,17.72
2022-09-11T09:35:41.196Z,17.49
2022-09-11T09:41:07.359Z,17.23
2022-09-11T09:46:27.755Z,17.16
2022-09-11T09:51:30.518Z,17.03
2022-09-11T09:56:37.744Z,17.12
2022-09-11T10:01:52.640Z,17.09
2022-09-11T10:07:08.668Z,16.98
2022-09-11T10:12:18.242Z,16.78
2022-09-11T10:17:41.187Z,16.49
2022-09-11T10:22:45.018Z,16.49
2022-09-11T10:28:17.630Z,16.54
2022-09-11T10:33:30.278Z,16.54
2022-09-11T10:38:45.565Z,16.44
2022-09-11T10:44:00.977Z,16.46
2022-09-11T10:49:06.622Z,16.55
2022-09-11T10:54:54.956Z,16.54
2022-09-11T11:00:10.078Z,16.48
2022-09-11T11:05:24.956Z,16.51
2022-09-11T11:10:52.870Z,16.63
2022-09-11T11:16:07.467Z,16.67
2022-09-11T11:21:19.475Z,16.74
2022-09-11T11:26:25.185Z,16.92
2022-09-11T11:32:01.632Z,17.01
2022-09-11T11:37:25.609Z,17.14
2022-09-11T11:42:35.723Z,17.25
2022-09-11T11:47:42.984Z,17.28
2022-09-11T11:53:02.997Z,17.27
2022-09-11T11:58:50.355Z,17.22
2022-09-11T12:04:25.002Z,17.34
2022-09-11T12:09:33.358Z,17.21
2022-09-11T12:14:38.648Z,17.17
2022-09-11T12:20:11.172Z,17.26
2022-09-11T12:25:21.648Z,17.35
2022-09-11T12:30:28.235Z,17.45
2022-09-11T12:35:48.172Z,17.40
2022-09-11T12:40:54.801Z,17.37
2022-09-11T12:45:59.393Z,17.35
2022-09-11T12:51:03.973Z,17.22
2022-09-11T12:56:19.240Z,17.01
2022-09-11T13:01:30.698Z,16.79
2022-09-11T13:06:49.005Z,16.77
2022-09-11T13:11:54.357Z,16.73
2022-09-11T13:17:04.305Z,16.77
2022-09-11T13:22:23.870Z,16.79
2022-09-11T13:27:28.705Z,16.77
2022-09-11T13:32:31.817Z,16.66
2022-09-11T13:37:57.466Z,16.60
2022-09-11T13:43:02.261Z,16.65
2022-09-11T13:48:13.450Z,16.78
2022-09-11T13:53:21.009Z,16.90
2022-09-11T13:58:35.173Z,16.85
2022-09-11T14:03:43.067Z,16.61
2022-09-11T14:08:56.851Z,16.49
2022-09-11T14:14:12.012Z,16.47
2022-09-11T14:19:22.613Z,16.48
2022-09-11T14:24:32.816Z,16.47
2022-09-11T14:29:37.510Z,16.48
2022-09-11T14:34:40.428Z,16.49
2022-09-11T14:39:58.799Z,16.40
2022-09-11T14:45:19.594Z,16.28
2022-09-11T14:50:24.757Z,16.23
2022-09-11T14:55:27.774Z,16.17
2022-09-11T15:00:32.102Z,16.13
2022-09-11T15:05:34.874Z,16.09
2022-09-11T15:10:38.572Z,15.99
2022-09-11T15:15:41.647Z,15.82
2022-09-11T15:20:45.701Z,15.70
2022-09-11T15:25:48.397Z,15.61
2022-09-11T15:31:00.045Z,15.57
2022-09-11T15:36:05.325Z,15.47
2022-09-11T15:41:12.598Z,15.39
2022-09-11T15:46:15.582Z,15.43
2022-09-11T15:51:24.320Z,15.34
2022-09-11T15:56:28.720Z,15.21
2022-09-11T16:01:34.871Z,15.08
2022-09-11T16:06:41.090Z,14.97
2022-09-11T16:11:44.304Z,15.40
2022-09-11T16:16:47.286Z,15.44
2022-09-11T16:21:50.249Z,15.09
2022-09-11T16:26:56.004Z,14.80
2022-09-11T16:31:59.249Z,14.52
2022-09-11T16:37:02.380Z,14.30
2022-09-11T16:42:06.694Z,14.12
2022-09-11T16:47:09.860Z,13.94
2022-09-11T16:52:13.301Z,13.76
2022-09-11T16:57:16.143Z,13.59
2022-09-11T17:02:19.091Z,13.43
2022-09-11T17:07:21.860Z,13.27
2022-09-11T17:12:24.798Z,13.12
2022-09-11T17:17:27.952Z,12.96
2022-09-11T17:22:33.882Z,12.81
2022-09-11T17:27:45.129Z,12.65
2022-09-11T17:33:08.330Z,12.51
2022-09-11T17:38:11.341Z,12.40
2022-09-11T17:43:16.685Z,12.31
2022-09-11T17:48:20.419Z,12.25
2022-09-11T17:53:23.371Z,12.22
2022-09-11T17:58:26.134Z,12.17
2022-09-11T18:03:32.429Z,12.11
2022-09-11T18:08:37.670Z,12.03
2022-09-11T18:13:45.346Z,11.95
2022-09-11T18:18:49.295Z,11.85
2022-09-11T18:23:52.639Z,11.76
2022-09-11T18:29:10.391Z,11.73
2022-09-11T18:34:16.980Z,11.70
2022-09-11T18:39:21.296Z,11.68
2022-09-11T18:44:25.358Z,11.63
2022-09-11T18:49:29.250Z,11.58
2022-09-11T18:54:34.116Z,11.55
2022-09-11T18:59:37.735Z,11.53
2022-09-11T19:04:44.977Z,11.48
2022-09-11T19:09:49.403Z,11.44
2022-09-11T19:14:52.866Z,11.41
2022-09-11T19:19:55.754Z,11.38
2022-09-11T19:24:59.751Z,11.33
2022-09-11T19:30:03.598Z,11.25
2022-09-11T19:35:06.727Z,11.20
2022-09-11T19:40:10.390Z,11.17
2022-09-11T19:45:13.311Z,11.13
2022-09-11T19:50:19.536Z,11.09
2022-09-11T19:55:22.338Z,11.11
2022-09-11T20:00:25.686Z,11.19
2022-09-11T20:05:29.830Z,11.26
2022-09-11T20:10:33.501Z,11.27
2022-09-11T20:15:36.772Z,11.26
2022-09-11T20:20:44.855Z,11.25
2022-09-11T20:25:48.561Z,11.26
2022-09-11T20:30:51.729Z,11.30
2022-09-11T20:35:54.548Z,11.39
2022-09-11T20:40:57.394Z,11.50
2022-09-11T20:46:00.682Z,11.60
2022-09-11T20:51:05.576Z,11.69
2022-09-11T20:56:12.165Z,11.77
2022-09-11T21:01:19.446Z,11.82
2022-09-11T21:06:26.294Z,11.80
2022-09-11T21:11:31.315Z,11.71
2022-09-11T21:16:34.789Z,11.60
2022-09-11T21:21:40.598Z,11.51
2022-09-11T21:26:44.405Z,11.41
2022-09-11T21:31:47.505Z,11.27
2022-09-11T21:36:50.317Z,11.13
2022-09-11T21:41:53.082Z,11.04
2022-09-11T21:46:55.928Z,10.98
2022-09-11T21:51:58.715Z,10.92
2022-09-11T21:57:02.852Z,10.86
2022-09-11T22:02:07.082Z,10.85
2022-09-11T22:07:11.063Z,10.90
2022-09-11T22:12:14.324Z,10.99
2022-09-11T22:17:17.189Z,11.02
2022-09-11T22:22:21.618Z,10.99
2022-09-11T22:27:24.512Z,10.87
2022-09-11T22:32:29.545Z,10.72
2022-09-11T22:37:34.069Z,10.61
2022-09-11T22:42:36.900Z,10.54
2022-09-11T22:47:39.684Z,10.46
2022-09-11T22:52:42.915Z,10.37
2022-09-11T22:57:45.728Z,10.26
2022-09-11T23:02:48.599Z,10.18
2022-09-11T23:07:54.820Z,10.11
2022-09-11T23:12:57.743Z,9.99
2022-09-11T23:18:00.929Z,9.90
2022-09-11T23:23:04.057Z,9.87
2022-09-11T23:28:07.151Z,9.84
2022-09-11T23:33:10.815Z,9.79
2022-09-11T23:38:13.841Z,9.76
2022-09-11T23:43:16.714Z,9.76
2022-09-11T23:48:19.520Z,9.76
2022-09-11T23:53:22.395Z,9.70
2022-09-11T23:58:25.562Z,9.64
